Time;durP1;ratioP1;P1;durP2;ratioP2;P2;SDS_P1;SDS_P2;PMS_P1;PMS_P2;Temp;Humidity;BMP_temperature;BMP_pressure;BME280_temperature;BME280_humidity;BME280_pressure;Samples;Min_cycle;Max_cycle;Signal;HPM_P1;HPM_P2
2023/07/07 00:02:00;;;;;;;4.10;2.77;;;;;;;;;;6228599;23;20451;-89
2023/07/07 00:04:26;;;;;;;6.10;2.40;;;;;;;;;;6225764;23;20413;-89
2023/07/07 00:06:52;;;;;;;5.43;3.00;;;;;;;;;;6228757;23;20386;-88
2023/07/07 00:09:18;;;;;;;5.10;2.77;;;;;;;;;;6225879;23;20378;-89
2023/07/07 00:11:44;;;;;;;4.37;2.93;;;;;;;;;;6228578;23;20382;-89
2023/07/07 00:14:10;;;;;;;4.40;2.87;;;;;;;;;;6226682;23;21051;-89
2023/07/07 00:16:37;;;;;;;3.43;2.40;;;;;;;;;;6228201;23;20393;-89
2023/07/07 00:19:03;;;;;;;4.30;2.70;;;;;;;;;;6227504;23;20370;-89
2023/07/07 00:21:29;;;;;;;3.00;2.40;;;;;;;;;;6227693;23;20354;-89
2023/07/07 00:23:56;;;;;;;4.80;2.60;;;;;;;;;;6228350;23;20400;-89
2023/07/07 00:26:22;;;;;;;5.33;2.60;;;;;;;;;;6226217;23;20385;-88
2023/07/07 00:28:48;;;;;;;4.70;2.97;;;;;;;;;;6226050;23;20393;-88
2023/07/07 00:31:15;;;;;;;3.27;2.33;;;;;;;;;;6227438;23;20457;-88
2023/07/07 00:33:41;;;;;;;4.67;2.43;;;;;;;;;;6225592;23;20713;-89
2023/07/07 00:36:07;;;;;;;4.63;2.63;;;;;;;;;;6228564;23;20442;-89
2023/07/07 00:38:33;;;;;;;5.03;2.80;;;;;;;;;;6224414;23;20381;-88
2023/07/07 00:40:59;;;;;;;4.33;2.83;;;;;;;;;;6226234;23;20366;-89
2023/07/07 00:43:26;;;;;;;4.40;2.30;;;;;;;;;;6224068;23;20950;-88
2023/07/07 00:45:52;;;;;;;8.13;3.20;;;;;;;;;;6228313;23;20374;-89
2023/07/07 00:48:22;;;;;;;4.00;2.73;;;;;;;;;;6226148;23;20394;-89
2023/07/07 00:50:53;;;;;;;4.50;2.80;;;;;;;;;;6227202;23;20460;-89
2023/07/07 00:53:19;;;;;;;3.50;2.50;;;;;;;;;;6227039;23;20891;-89
2023/07/07 00:55:49;;;;;;;3.03;2.50;;;;;;;;;;6225615;23;20417;-89
2023/07/07 00:58:17;;;;;;;4.50;2.60;;;;;;;;;;6229567;23;20795;-89
2023/07/07 01:00:43;;;;;;;4.40;2.80;;;;;;;;;;6226550;23;20374;-89
2023/07/07 01:03:13;;;;;;;4.60;3.20;;;;;;;;;;6227377;23;20711;-88
2023/07/07 01:05:39;;;;;;;3.73;2.70;;;;;;;;;;6225457;23;20929;-89
2023/07/07 01:08:06;;;;;;;7.00;2.70;;;;;;;;;;6226394;23;20405;-89
2023/07/07 01:10:32;;;;;;;6.20;2.93;;;;;;;;;;6224855;23;20382;-89
2023/07/07 01:12:58;;;;;;;5.27;3.47;;;;;;;;;;6225122;23;20374;-89
2023/07/07 01:15:24;;;;;;;4.70;2.50;;;;;;;;;;6225453;23;20425;-89
2023/07/07 01:17:53;;;;;;;6.63;3.17;;;;;;;;;;6225805;23;20362;-89
2023/07/07 01:20:30;;;;;;;4.80;2.57;;;;;;;;;;6227045;23;20375;-89
2023/07/07 01:23:02;;;;;;;3.93;3.03;;;;;;;;;;6226933;23;20366;-88
2023/07/07 01:25:29;;;;;;;3.60;2.60;;;;;;;;;;6254251;23;20366;-89
2023/07/07 01:28:13;;;;;;;5.20;2.93;;;;;;;;;;6217560;23;20383;-89
2023/07/07 01:30:47;;;;;;;4.33;2.90;;;;;;;;;;6196022;23;20383;-89
2023/07/07 01:33:14;;;;;;;4.00;3.17;;;;;;;;;;6168467;23;20392;-89
2023/07/07 01:35:40;;;;;;;7.40;3.20;;;;;;;;;;6169567;23;20465;-89
2023/07/07 01:38:06;;;;;;;4.30;2.87;;;;;;;;;;6168988;23;20395;-89
2023/07/07 01:40:32;;;;;;;4.23;3.10;;;;;;;;;;6169973;23;20398;-88
2023/07/07 01:42:59;;;;;;;3.40;2.53;;;;;;;;;;6193798;23;20382;-89
2023/07/07 01:45:51;;;;;;;3.80;2.70;;;;;;;;;;6169846;23;20391;-89
2023/07/07 01:48:20;;;;;;;5.30;3.47;;;;;;;;;;6190427;23;20406;-90
2023/07/07 01:50:46;;;;;;;3.63;2.57;;;;;;;;;;6196455;23;20382;-89
2023/07/07 01:53:14;;;;;;;3.40;2.80;;;;;;;;;;6167667;23;20417;-88
2023/07/07 01:55:41;;;;;;;7.57;2.60;;;;;;;;;;6170404;23;20509;-89
2023/07/07 01:58:07;;;;;;;3.93;2.97;;;;;;;;;;6174025;23;20455;-88
2023/07/07 02:00:33;;;;;;;5.13;3.13;;;;;;;;;;6225841;23;20727;-89
2023/07/07 02:02:59;;;;;;;5.90;3.17;;;;;;;;;;6223283;23;20387;-91
2023/07/07 02:05:26;;;;;;;3.70;2.60;;;;;;;;;;6223912;23;20850;-90
2023/07/07 02:07:52;;;;;;;4.60;2.73;;;;;;;;;;6224640;23;20358;-89
2023/07/07 02:10:18;;;;;;;4.80;2.77;;;;;;;;;;6226622;23;20439;-89
2023/07/07 02:12:45;;;;;;;4.20;2.90;;;;;;;;;;6225333;23;20387;-89
2023/07/07 02:15:11;;;;;;;4.87;2.37;;;;;;;;;;6225131;23;20417;-89
2023/07/07 02:17:38;;;;;;;5.90;3.73;;;;;;;;;;6224831;23;20382;-89
2023/07/07 02:20:04;;;;;;;3.63;2.40;;;;;;;;;;6225730;23;20461;-89
2023/07/07 02:22:30;;;;;;;4.03;2.63;;;;;;;;;;6224471;23;20386;-89
2023/07/07 02:24:56;;;;;;;6.23;3.20;;;;;;;;;;6227572;23;20398;-90
2023/07/07 02:27:22;;;;;;;3.63;2.80;;;;;;;;;;6227187;23;20381;-89
2023/07/07 02:29:48;;;;;;;7.83;3.00;;;;;;;;;;6229357;23;20391;-89
2023/07/07 02:32:14;;;;;;;4.90;2.83;;;;;;;;;;6227720;23;20379;-89
2023/07/07 02:34:47;;;;;;;5.50;3.23;;;;;;;;;;6228054;23;20564;-89
2023/07/07 02:37:17;;;;;;;2.70;2.27;;;;;;;;;;6227917;23;20457;-88
2023/07/07 02:39:43;;;;;;;6.10;3.17;;;;;;;;;;6225982;23;20394;-89
2023/07/07 02:42:09;;;;;;;4.60;3.33;;;;;;;;;;6224536;23;20393;-89
2023/07/07 02:44:35;;;;;;;3.23;2.83;;;;;;;;;;6228414;23;20378;-88
2023/07/07 02:47:01;;;;;;;4.80;3.43;;;;;;;;;;6219216;23;20414;-88
2023/07/07 02:49:27;;;;;;;4.27;3.50;;;;;;;;;;6218842;23;20387;-89
2023/07/07 02:51:53;;;;;;;3.40;3.00;;;;;;;;;;6216854;23;20394;-88
2023/07/07 02:54:19;;;;;;;5.10;3.17;;;;;;;;;;6219572;23;20448;-89
2023/07/07 02:56:45;;;;;;;6.23;2.87;;;;;;;;;;6221309;23;20460;-89
2023/07/07 02:59:11;;;;;;;5.30;4.40;;;;;;;;;;6219457;23;20462;-89
2023/07/07 03:01:37;;;;;;;3.43;2.90;;;;;;;;;;6221349;23;20371;-89
2023/07/07 03:04:04;;;;;;;5.10;3.00;;;;;;;;;;6218888;23;20799;-89
2023/07/07 03:06:30;;;;;;;4.70;3.30;;;;;;;;;;6220480;23;20395;-88
2023/07/07 03:08:56;;;;;;;3.70;3.13;;;;;;;;;;6220099;23;20719;-89
2023/07/07 03:11:22;;;;;;;2.73;2.43;;;;;;;;;;6221545;23;20429;-89
2023/07/07 03:13:49;;;;;;;5.00;3.30;;;;;;;;;;6220213;23;20452;-89
2023/07/07 03:16:20;;;;;;;5.07;3.45;;;;;;;;;;6223451;23;20398;-89
2023/07/07 03:18:46;;;;;;;5.20;3.27;;;;;;;;;;6197720;23;20148;-89
2023/07/07 03:21:12;;;;;;;5.13;2.90;;;;;;;;;;6222253;23;20403;-89
2023/07/07 03:23:41;;;;;;;5.60;3.47;;;;;;;;;;6219395;23;20385;-89
2023/07/07 03:26:11;;;;;;;5.00;2.90;;;;;;;;;;6222922;23;20752;-89
2023/07/07 03:28:37;;;;;;;5.53;2.83;;;;;;;;;;6220963;23;20394;-89
2023/07/07 03:31:16;;;;;;;4.23;3.23;;;;;;;;;;6223696;23;20379;-89
2023/07/07 03:33:43;;;;;;;5.10;3.87;;;;;;;;;;6219043;23;20386;-89
2023/07/07 03:36:12;;;;;;;5.70;3.20;;;;;;;;;;6221324;23;20454;-88
2023/07/07 03:38:38;;;;;;;7.43;3.73;;;;;;;;;;6220167;23;20371;-90
2023/07/07 03:41:05;;;;;;;4.67;3.30;;;;;;;;;;6221495;23;20367;-89
2023/07/07 03:43:33;;;;;;;7.77;3.57;;;;;;;;;;6219402;23;20383;-89
2023/07/07 03:46:02;;;;;;;4.43;3.73;;;;;;;;;;6219392;23;20414;-89
2023/07/07 03:48:28;;;;;;;6.13;3.20;;;;;;;;;;6217799;23;20453;-89
2023/07/07 03:50:58;;;;;;;4.73;3.50;;;;;;;;;;6222629;23;20359;-89
2023/07/07 03:53:24;;;;;;;5.90;2.70;;;;;;;;;;6219771;23;20374;-90
2023/07/07 03:55:51;;;;;;;4.67;3.43;;;;;;;;;;6222070;23;20427;-89
2023/07/07 03:58:16;;;;;;;5.40;3.77;;;;;;;;;;6221337;23;20383;-89
2023/07/07 04:00:42;;;;;;;4.70;3.07;;;;;;;;;;6221805;23;20410;-89
2023/07/07 04:03:08;;;;;;;4.23;3.27;;;;;;;;;;6219646;23;20384;-89
2023/07/07 04:05:40;;;;;;;3.80;3.03;;;;;;;;;;6223012;23;20394;-89
2023/07/07 04:08:06;;;;;;;4.13;3.60;;;;;;;;;;6219126;23;20531;-90
2023/07/07 04:10:32;;;;;;;4.57;3.60;;;;;;;;;;6219588;23;20383;-89
2023/07/07 04:12:58;;;;;;;6.77;3.43;;;;;;;;;;6217882;23;20390;-90
2023/07/07 04:15:24;;;;;;;5.37;2.87;;;;;;;;;;6220407;23;20422;-89
2023/07/07 04:17:50;;;;;;;3.90;2.77;;;;;;;;;;6218263;23;20418;-90
2023/07/07 04:20:16;;;;;;;15.40;3.83;;;;;;;;;;6222224;23;20378;-89
2023/07/07 04:22:42;;;;;;;5.00;3.20;;;;;;;;;;6219706;23;20703;-89
2023/07/07 04:25:12;;;;;;;4.33;3.00;;;;;;;;;;6219322;23;20454;-89
2023/07/07 04:27:38;;;;;;;3.90;2.93;;;;;;;;;;6221485;23;20378;-90
2023/07/07 04:30:05;;;;;;;5.20;3.53;;;;;;;;;;6220220;23;20375;-90
2023/07/07 04:32:32;;;;;;;4.20;3.40;;;;;;;;;;6223209;23;20372;-90
2023/07/07 04:34:59;;;;;;;4.93;3.10;;;;;;;;;;6220211;23;20523;-90
2023/07/07 04:37:25;;;;;;;7.97;4.43;;;;;;;;;;6220828;23;20383;-90
2023/07/07 04:39:51;;;;;;;4.50;3.30;;;;;;;;;;6218431;23;20379;-91
2023/07/07 04:42:20;;;;;;;4.47;3.20;;;;;;;;;;6226994;23;20454;-96
2023/07/07 04:44:49;;;;;;;4.70;2.93;;;;;;;;;;6233807;23;20404;-96
2023/07/07 04:47:18;;;;;;;4.20;2.53;;;;;;;;;;6239073;23;20395;-96
2023/07/07 04:49:44;;;;;;;4.40;3.57;;;;;;;;;;6221905;23;20375;-90
2023/07/07 04:52:10;;;;;;;3.53;3.10;;;;;;;;;;6222604;23;20387;-89
2023/07/07 04:54:36;;;;;;;4.10;2.97;;;;;;;;;;6220765;23;21080;-93
2023/07/07 04:57:03;;;;;;;5.07;3.73;;;;;;;;;;6221736;23;20379;-88
2023/07/07 04:59:31;;;;;;;5.83;3.63;;;;;;;;;;6217333;23;20411;-89
2023/07/07 05:01:57;;;;;;;5.03;3.50;;;;;;;;;;6223374;23;20425;-93
2023/07/07 05:04:23;;;;;;;5.53;3.00;;;;;;;;;;6222749;23;20375;-91
2023/07/07 05:06:49;;;;;;;5.57;3.60;;;;;;;;;;6224971;23;20375;-91
2023/07/07 05:09:16;;;;;;;5.00;3.90;;;;;;;;;;6223138;23;20405;-92
2023/07/07 05:11:42;;;;;;;6.57;3.40;;;;;;;;;;6220915;23;20433;-92
2023/07/07 05:14:08;;;;;;;7.43;3.47;;;;;;;;;;6220212;23;20390;-92
2023/07/07 05:16:35;;;;;;;6.20;3.07;;;;;;;;;;6221343;23;20427;-92
2023/07/07 05:19:01;;;;;;;6.27;4.00;;;;;;;;;;6222371;23;20383;-91
2023/07/07 05:21:27;;;;;;;5.00;3.13;;;;;;;;;;6222300;23;20398;-92
2023/07/07 05:23:53;;;;;;;4.20;3.20;;;;;;;;;;6217115;23;20437;-91
2023/07/07 05:26:22;;;;;;;6.80;3.60;;;;;;;;;;6220804;23;20986;-92
2023/07/07 05:28:51;;;;;;;5.40;3.43;;;;;;;;;;6219527;23;20380;-92
2023/07/07 05:31:17;;;;;;;7.03;4.40;;;;;;;;;;6219037;23;20394;-92
2023/07/07 05:33:43;;;;;;;4.80;3.37;;;;;;;;;;6218079;23;20383;-90
2023/07/07 05:36:09;;;;;;;5.60;3.27;;;;;;;;;;6222142;23;20423;-91
2023/07/07 05:38:37;;;;;;;5.20;3.80;;;;;;;;;;6220146;23;20418;-91
2023/07/07 05:41:03;;;;;;;5.77;3.03;;;;;;;;;;6221960;23;20386;-91
2023/07/07 05:43:29;;;;;;;7.10;3.33;;;;;;;;;;6220815;23;21113;-90
2023/07/07 05:45:58;;;;;;;8.60;4.17;;;;;;;;;;6221985;23;20382;-90
2023/07/07 05:48:24;;;;;;;4.87;3.20;;;;;;;;;;6221170;23;20438;-91
2023/07/07 05:50:52;;;;;;;6.23;3.70;;;;;;;;;;6225401;23;20379;-91
2023/07/07 05:53:18;;;;;;;4.30;3.13;;;;;;;;;;6217768;23;21217;-90
2023/07/07 05:55:46;;;;;;;5.73;3.67;;;;;;;;;;6219981;23;20438;-90
2023/07/07 05:58:13;;;;;;;6.77;3.60;;;;;;;;;;6222410;23;20406;-91
2023/07/07 06:00:39;;;;;;;6.67;3.70;;;;;;;;;;6222356;23;20775;-91
2023/07/07 06:03:06;;;;;;;5.60;3.80;;;;;;;;;;6223418;23;20402;-90
2023/07/07 06:05:33;;;;;;;5.73;3.47;;;;;;;;;;6221548;23;20391;-91
2023/07/07 06:07:59;;;;;;;3.80;3.27;;;;;;;;;;6224483;23;20925;-91
2023/07/07 06:10:25;;;;;;;6.23;3.70;;;;;;;;;;6221332;23;20367;-90
2023/07/07 06:12:51;;;;;;;4.30;3.47;;;;;;;;;;6224265;23;20359;-90
2023/07/07 06:15:18;;;;;;;5.00;3.47;;;;;;;;;;6222341;23;20656;-90
2023/07/07 06:17:44;;;;;;;4.30;3.90;;;;;;;;;;6218852;23;20713;-90
2023/07/07 06:20:11;;;;;;;6.83;3.90;;;;;;;;;;6220689;23;20375;-90
2023/07/07 06:22:37;;;;;;;5.73;4.17;;;;;;;;;;6220048;23;20406;-91
2023/07/07 06:25:03;;;;;;;4.50;3.40;;;;;;;;;;6222581;23;21074;-91
2023/07/07 06:27:29;;;;;;;8.30;4.07;;;;;;;;;;6221618;23;20374;-90
2023/07/07 06:29:55;;;;;;;6.17;3.90;;;;;;;;;;6221109;23;20929;-88
2023/07/07 06:32:21;;;;;;;6.00;3.53;;;;;;;;;;6219604;23;20421;-90
2023/07/07 06:34:47;;;;;;;6.10;3.63;;;;;;;;;;6219360;23;20430;-90
2023/07/07 06:37:13;;;;;;;5.97;3.90;;;;;;;;;;6219556;23;20382;-90
2023/07/07 06:39:39;;;;;;;5.33;3.93;;;;;;;;;;6220462;23;20371;-90
2023/07/07 06:42:05;;;;;;;10.77;4.23;;;;;;;;;;6216350;23;20403;-90
2023/07/07 06:44:32;;;;;;;5.97;3.77;;;;;;;;;;6220553;23;20399;-90
2023/07/07 06:46:58;;;;;;;6.80;4.30;;;;;;;;;;6218690;23;20409;-89
2023/07/07 06:49:24;;;;;;;7.57;4.73;;;;;;;;;;6221398;23;20390;-90
2023/07/07 06:51:50;;;;;;;6.40;4.50;;;;;;;;;;6220453;23;20470;-90
2023/07/07 06:54:16;;;;;;;5.93;3.70;;;;;;;;;;6219545;23;20363;-90
2023/07/07 06:56:42;;;;;;;5.70;4.43;;;;;;;;;;6217546;23;20375;-90
2023/07/07 06:59:08;;;;;;;6.30;4.90;;;;;;;;;;6227076;23;20386;-90
2023/07/07 07:01:34;;;;;;;6.47;3.70;;;;;;;;;;6218585;23;20409;-90
2023/07/07 07:04:01;;;;;;;6.60;4.73;;;;;;;;;;6220724;23;20387;-90
2023/07/07 07:06:28;;;;;;;4.90;3.73;;;;;;;;;;6216953;23;20394;-89
2023/07/07 07:08:54;;;;;;;5.90;4.10;;;;;;;;;;6221213;23;20410;-90
2023/07/07 07:11:19;;;;;;;5.13;4.20;;;;;;;;;;6220293;23;20769;-90
2023/07/07 07:13:47;;;;;;;6.43;4.30;;;;;;;;;;6218997;23;20387;-90
2023/07/07 07:16:13;;;;;;;5.90;3.90;;;;;;;;;;6223202;23;20449;-90
2023/07/07 07:18:39;;;;;;;7.67;5.03;;;;;;;;;;6219970;23;20736;-90
2023/07/07 07:21:05;;;;;;;5.67;4.30;;;;;;;;;;6222159;23;20449;-89
2023/07/07 07:23:30;;;;;;;5.97;4.43;;;;;;;;;;6220511;23;20386;-90
2023/07/07 07:25:56;;;;;;;6.00;3.60;;;;;;;;;;6224668;23;20413;-90
2023/07/07 07:28:22;;;;;;;5.97;3.90;;;;;;;;;;6222449;23;20375;-90
2023/07/07 07:30:48;;;;;;;6.50;4.47;;;;;;;;;;6226115;23;20386;-90
2023/07/07 07:33:15;;;;;;;5.60;4.30;;;;;;;;;;6221443;23;20437;-90
2023/07/07 07:35:41;;;;;;;5.87;3.83;;;;;;;;;;6223733;23;20442;-90
2023/07/07 07:38:08;;;;;;;5.80;4.07;;;;;;;;;;6221315;23;20894;-89
2023/07/07 07:40:34;;;;;;;6.63;4.20;;;;;;;;;;6222698;23;20367;-89
2023/07/07 07:43:00;;;;;;;6.17;4.00;;;;;;;;;;6218550;23;20441;-89
2023/07/07 07:45:26;;;;;;;10.50;4.20;;;;;;;;;;6222317;23;20383;-90
2023/07/07 07:47:52;;;;;;;8.20;3.70;;;;;;;;;;6221890;23;20483;-90
2023/07/07 07:50:18;;;;;;;5.60;4.10;;;;;;;;;;6222339;23;21101;-90
2023/07/07 07:52:44;;;;;;;6.10;4.30;;;;;;;;;;6219357;23;20379;-89
2023/07/07 07:55:10;;;;;;;6.70;4.57;;;;;;;;;;6221315;23;20443;-89
2023/07/07 07:57:36;;;;;;;5.70;4.00;;;;;;;;;;6219595;23;20386;-90
2023/07/07 08:00:04;;;;;;;6.40;4.47;;;;;;;;;;6223482;23;20457;-90
2023/07/07 08:02:31;;;;;;;6.43;4.37;;;;;;;;;;6222442;23;20371;-91
2023/07/07 08:04:57;;;;;;;9.03;4.83;;;;;;;;;;6220035;23;20379;-89
2023/07/07 08:07:23;;;;;;;5.53;3.77;;;;;;;;;;6219778;23;20420;-90
2023/07/07 08:09:49;;;;;;;7.13;3.73;;;;;;;;;;6220065;23;20376;-89
2023/07/07 08:12:15;;;;;;;6.07;4.53;;;;;;;;;;6223302;23;20521;-89
2023/07/07 08:14:41;;;;;;;6.30;4.63;;;;;;;;;;6219456;23;20423;-89
2023/07/07 08:17:08;;;;;;;6.60;4.87;;;;;;;;;;6222682;23;20371;-90
2023/07/07 08:19:34;;;;;;;6.77;4.47;;;;;;;;;;6220261;23;20824;-89
2023/07/07 08:22:01;;;;;;;5.83;4.10;;;;;;;;;;6221051;23;20371;-91
2023/07/07 08:24:27;;;;;;;4.77;3.43;;;;;;;;;;6220853;23;20419;-89
2023/07/07 08:26:53;;;;;;;6.57;4.70;;;;;;;;;;6224991;23;20379;-89
2023/07/07 08:29:19;;;;;;;7.10;4.27;;;;;;;;;;6222029;23;20922;-90
2023/07/07 08:31:45;;;;;;;5.70;4.07;;;;;;;;;;6225278;23;20383;-90
2023/07/07 08:34:11;;;;;;;8.13;5.00;;;;;;;;;;6220109;23;20375;-90
2023/07/07 08:36:37;;;;;;;7.63;4.67;;;;;;;;;;6221724;23;20492;-90
2023/07/07 08:39:13;;;;;;;5.70;4.00;;;;;;;;;;6218498;23;20379;-90
2023/07/07 08:41:45;;;;;;;7.53;3.97;;;;;;;;;;6220325;23;20381;-89
2023/07/07 08:44:13;;;;;;;7.10;3.67;;;;;;;;;;6219618;23;20457;-91
2023/07/07 08:46:40;;;;;;;9.30;4.33;;;;;;;;;;6222278;23;20403;-90
2023/07/07 08:49:12;;;;;;;6.50;4.60;;;;;;;;;;6221968;23;20914;-91
2023/07/07 08:51:41;;;;;;;6.90;4.37;;;;;;;;;;6224905;23;20410;-89
2023/07/07 08:54:10;;;;;;;8.73;5.67;;;;;;;;;;6222107;23;20379;-91
2023/07/07 08:56:39;;;;;;;8.23;4.20;;;;;;;;;;6223998;23;20427;-91
2023/07/07 08:59:24;;;;;;;5.90;4.43;;;;;;;;;;6221456;23;20367;-92
2023/07/07 09:01:53;;;;;;;6.50;5.20;;;;;;;;;;6227495;23;20442;-93
2023/07/07 09:04:31;;;;;;;7.07;4.57;;;;;;;;;;6220673;23;20351;-92
2023/07/07 09:07:16;;;;;;;7.37;4.50;;;;;;;;;;6221449;23;20837;-91
2023/07/07 09:09:57;;;;;;;7.30;4.83;;;;;;;;;;6220136;23;20737;-90
2023/07/07 09:12:26;;;;;;;6.20;4.70;;;;;;;;;;6223527;23;20412;-91
2023/07/07 09:14:52;;;;;;;5.87;4.40;;;;;;;;;;6220600;23;20422;-89
2023/07/07 09:17:27;;;;;;;5.90;4.63;;;;;;;;;;6220973;23;20394;-90
2023/07/07 09:19:53;;;;;;;8.23;5.10;;;;;;;;;;6221523;23;20397;-91
2023/07/07 09:22:33;;;;;;;6.83;4.57;;;;;;;;;;6221916;23;20387;-90
2023/07/07 09:25:02;;;;;;;7.17;4.97;;;;;;;;;;6220793;23;20383;-92
2023/07/07 09:27:30;;;;;;;9.50;5.30;;;;;;;;;;6222489;23;20383;-90
2023/07/07 09:29:59;;;;;;;8.43;5.03;;;;;;;;;;6220498;23;20414;-90
2023/07/07 09:32:25;;;;;;;6.27;4.13;;;;;;;;;;6225132;23;20379;-90
2023/07/07 09:34:51;;;;;;;7.67;5.70;;;;;;;;;;6220637;23;20437;-91
2023/07/07 09:37:30;;;;;;;8.10;5.47;;;;;;;;;;6220965;23;20375;-91
2023/07/07 09:39:56;;;;;;;8.20;5.40;;;;;;;;;;6219865;23;20612;-91
2023/07/07 09:42:21;;;;;;;9.17;5.73;;;;;;;;;;6220870;23;20452;-93
2023/07/07 09:45:03;;;;;;;7.60;4.93;;;;;;;;;;6219533;23;20367;-91
2023/07/07 09:47:48;;;;;;;7.10;5.47;;;;;;;;;;6240184;23;20854;-90
2023/07/07 09:50:16;;;;;;;5.80;4.60;;;;;;;;;;6223962;23;20362;-89
2023/07/07 09:52:59;;;;;;;10.73;5.90;;;;;;;;;;6226800;23;20381;-90
2023/07/07 09:55:27;;;;;;;6.70;4.83;;;;;;;;;;6223433;23;20430;-90
2023/07/07 09:57:56;;;;;;;7.93;5.17;;;;;;;;;;6227831;23;20379;-88
2023/07/07 10:00:22;;;;;;;11.63;6.10;;;;;;;;;;6222920;23;20378;-92
2023/07/07 10:02:48;;;;;;;6.40;5.57;;;;;;;;;;6228717;23;20370;-89
2023/07/07 10:05:16;;;;;;;9.33;4.87;;;;;;;;;;6222910;23;20386;-89
2023/07/07 10:07:42;;;;;;;8.43;5.37;;;;;;;;;;6225614;23;20382;-88
2023/07/07 10:10:10;;;;;;;9.03;5.73;;;;;;;;;;6224207;23;20386;-88
2023/07/07 10:12:40;;;;;;;6.60;5.07;;;;;;;;;;6223756;23;20421;-88
2023/07/07 10:15:20;;;;;;;8.33;5.47;;;;;;;;;;6224933;23;20843;-89
2023/07/07 10:17:57;;;;;;;7.50;5.10;;;;;;;;;;6225641;23;20451;-91
2023/07/07 10:20:23;;;;;;;7.23;5.63;;;;;;;;;;6223593;23;20362;-91
2023/07/07 10:22:49;;;;;;;8.10;5.23;;;;;;;;;;6224499;23;20396;-90
2023/07/07 10:25:16;;;;;;;9.07;7.13;;;;;;;;;;6223512;23;20378;-91
2023/07/07 10:27:51;;;;;;;8.10;6.30;;;;;;;;;;6224654;23;20375;-90
2023/07/07 10:30:17;;;;;;;8.80;7.10;;;;;;;;;;6230993;23;20394;-90
2023/07/07 10:32:43;;;;;;;10.47;7.17;;;;;;;;;;6223628;23;20416;-90
2023/07/07 10:35:09;;;;;;;7.10;6.03;;;;;;;;;;6229519;23;20446;-90
2023/07/07 10:37:37;;;;;;;8.77;7.00;;;;;;;;;;6222959;23;20441;-91
2023/07/07 10:40:04;;;;;;;9.73;6.93;;;;;;;;;;6227020;23;20397;-91
2023/07/07 10:42:33;;;;;;;8.57;6.20;;;;;;;;;;6223190;23;20854;-90
2023/07/07 10:45:00;;;;;;;9.07;6.80;;;;;;;;;;6225936;23;20362;-90
2023/07/07 10:47:26;;;;;;;10.07;6.70;;;;;;;;;;6225944;23;20389;-91
2023/07/07 10:49:52;;;;;;;10.67;7.33;;;;;;;;;;6228892;23;20849;-93
2023/07/07 10:52:27;;;;;;;9.10;7.23;;;;;;;;;;6226215;23;20385;-92
2023/07/07 10:55:05;;;;;;;8.33;6.53;;;;;;;;;;6230739;23;20461;-91
2023/07/07 10:57:40;;;;;;;10.03;6.70;;;;;;;;;;6225575;23;20377;-92
2023/07/07 11:00:06;;;;;;;10.27;7.00;;;;;;;;;;6231426;23;20378;-92
2023/07/07 11:02:48;;;;;;;13.63;7.53;;;;;;;;;;6228212;23;20374;-88
2023/07/07 11:05:17;;;;;;;11.93;7.40;;;;;;;;;;6233925;23;20853;-91
2023/07/07 11:07:55;;;;;;;10.83;8.17;;;;;;;;;;6229323;23;20444;-91
2023/07/07 11:10:30;;;;;;;12.60;10.03;;;;;;;;;;6229104;23;20908;-90
2023/07/07 11:13:19;;;;;;;12.23;9.60;;;;;;;;;;6228829;23;20392;-92
2023/07/07 11:16:23;;;;;;;16.70;10.00;;;;;;;;;;6227741;23;20464;-92
2023/07/07 11:18:55;;;;;;;10.83;8.27;;;;;;;;;;6110074;23;20392;-91
2023/07/07 11:21:21;;;;;;;11.97;8.23;;;;;;;;;;6082982;23;20397;-91
2023/07/07 11:23:56;;;;;;;10.00;7.07;;;;;;;;;;6169911;23;20420;-92
2023/07/07 11:26:22;;;;;;;8.73;6.93;;;;;;;;;;6226724;23;20374;-91
2023/07/07 11:28:48;;;;;;;8.77;6.73;;;;;;;;;;6257552;23;20390;-92
2023/07/07 11:31:22;;;;;;;14.03;9.60;;;;;;;;;;6226114;23;20370;-92
2023/07/07 11:34:14;;;;;;;13.60;9.23;;;;;;;;;;6228348;23;20623;-91
2023/07/07 11:36:55;;;;;;;13.53;9.33;;;;;;;;;;6192432;23;20426;-91
2023/07/07 11:39:25;;;;;;;13.20;8.07;;;;;;;;;;6231542;23;20390;-91
2023/07/07 11:42:09;;;;;;;12.77;8.50;;;;;;;;;;6227789;23;20378;-90
2023/07/07 11:44:45;;;;;;;11.23;8.27;;;;;;;;;;6227469;23;20385;-90
2023/07/07 11:47:14;;;;;;;9.93;7.43;;;;;;;;;;6254208;23;20392;-90
2023/07/07 11:49:50;;;;;;;7.60;6.80;;;;;;;;;;6228316;23;20370;-90
2023/07/07 11:52:21;;;;;;;12.27;6.90;;;;;;;;;;6227790;23;20384;-91
2023/07/07 11:55:06;;;;;;;9.27;7.70;;;;;;;;;;6225534;23;20422;-91
2023/07/07 11:57:52;;;;;;;10.03;6.43;;;;;;;;;;6225608;22;20769;-90
2023/07/07 12:00:36;;;;;;;9.90;7.60;;;;;;;;;;6230714;23;20374;-91
2023/07/07 12:03:18;;;;;;;10.40;6.90;;;;;;;;;;6226483;23;20375;-90
2023/07/07 12:05:44;;;;;;;10.30;7.17;;;;;;;;;;6230590;23;20366;-91
2023/07/07 12:08:11;;;;;;;9.30;7.63;;;;;;;;;;6226219;23;20382;-90
2023/07/07 12:10:45;;;;;;;10.10;6.40;;;;;;;;;;6231997;23;20144;-90
2023/07/07 12:13:14;;;;;;;9.10;6.97;;;;;;;;;;6226567;23;20367;-88
2023/07/07 12:15:42;;;;;;;8.33;7.53;;;;;;;;;;6228599;23;20437;-89
2023/07/07 12:18:12;;;;;;;8.67;6.50;;;;;;;;;;6227075;23;20428;-90
2023/07/07 12:20:46;;;;;;;7.67;6.90;;;;;;;;;;6230957;23;20397;-91
2023/07/07 12:23:15;;;;;;;10.33;6.50;;;;;;;;;;6225763;23;20377;-91
2023/07/07 12:25:41;;;;;;;10.90;7.10;;;;;;;;;;6229869;23;20393;-91
2023/07/07 12:28:07;;;;;;;8.07;6.50;;;;;;;;;;6228043;23;20386;-93
2023/07/07 12:30:36;;;;;;;8.10;6.70;;;;;;;;;;6231000;23;20401;-91
2023/07/07 12:33:03;;;;;;;9.60;7.70;;;;;;;;;;6227095;23;20382;-90
2023/07/07 12:35:31;;;;;;;11.03;7.53;;;;;;;;;;6230962;23;20800;-91
2023/07/07 12:37:59;;;;;;;10.80;8.13;;;;;;;;;;6228464;23;20382;-91
2023/07/07 12:40:25;;;;;;;8.33;6.60;;;;;;;;;;6230816;23;20382;-92
2023/07/07 12:42:58;;;;;;;9.80;7.03;;;;;;;;;;6228793;23;20465;-91
2023/07/07 12:45:26;;;;;;;8.80;7.10;;;;;;;;;;6228853;23;20863;-91
2023/07/07 12:47:57;;;;;;;8.63;7.23;;;;;;;;;;6226138;23;20870;-90
2023/07/07 12:50:25;;;;;;;8.27;6.63;;;;;;;;;;6228697;23;20377;-91
2023/07/07 12:52:53;;;;;;;8.60;7.23;;;;;;;;;;6223715;23;20716;-91
2023/07/07 12:55:21;;;;;;;7.83;7.03;;;;;;;;;;6229347;23;20418;-92
2023/07/07 12:58:02;;;;;;;8.43;7.30;;;;;;;;;;6224814;23;20402;-92
2023/07/07 13:00:32;;;;;;;7.80;6.97;;;;;;;;;;6230837;23;20767;-91
2023/07/07 13:03:22;;;;;;;10.03;7.10;;;;;;;;;;6228729;23;20413;-91
2023/07/07 13:05:48;;;;;;;8.87;7.67;;;;;;;;;;6216568;23;20409;-92
2023/07/07 13:08:33;;;;;;;9.77;6.93;;;;;;;;;;6227119;23;20764;-90
2023/07/07 13:11:05;;;;;;;8.67;7.20;;;;;;;;;;6230637;23;20392;-93
2023/07/07 13:13:35;;;;;;;9.00;7.33;;;;;;;;;;6230383;23;20362;-90
2023/07/07 13:16:01;;;;;;;7.30;6.43;;;;;;;;;;6230082;23;20449;-91
2023/07/07 13:18:27;;;;;;;7.73;6.97;;;;;;;;;;6226830;23;20390;-91
2023/07/07 13:20:53;;;;;;;10.93;6.80;;;;;;;;;;6227586;23;20143;-91
2023/07/07 13:23:21;;;;;;;7.63;6.83;;;;;;;;;;6227243;23;20382;-90
2023/07/07 13:25:47;;;;;;;7.97;7.17;;;;;;;;;;6229880;23;20393;-90
2023/07/07 13:28:13;;;;;;;7.33;6.63;;;;;;;;;;6227399;23;20378;-91
2023/07/07 13:30:41;;;;;;;8.03;7.03;;;;;;;;;;6231634;23;20389;-90
2023/07/07 13:33:08;;;;;;;8.00;7.17;;;;;;;;;;6226739;23;20385;-91
2023/07/07 13:35:35;;;;;;;13.00;6.60;;;;;;;;;;6228999;23;20525;-91
2023/07/07 13:38:20;;;;;;;7.93;6.97;;;;;;;;;;6225639;23;20366;-91
2023/07/07 13:40:46;;;;;;;10.53;7.83;;;;;;;;;;6229393;23;20373;-91
2023/07/07 13:43:22;;;;;;;9.93;7.20;;;;;;;;;;6226013;23;20982;-91
2023/07/07 13:45:48;;;;;;;10.17;7.40;;;;;;;;;;6228843;23;20455;-91
2023/07/07 13:48:20;;;;;;;8.27;7.20;;;;;;;;;;6226965;23;20820;-90
2023/07/07 13:50:46;;;;;;;7.43;6.73;;;;;;;;;;6232566;23;20931;-91
2023/07/07 13:53:12;;;;;;;9.23;8.27;;;;;;;;;;6225023;23;20414;-90
2023/07/07 13:55:38;;;;;;;7.43;6.73;;;;;;;;;;6227169;23;20406;-90
2023/07/07 13:58:04;;;;;;;8.63;7.10;;;;;;;;;;6229290;23;20144;-91
2023/07/07 14:00:31;;;;;;;7.87;7.07;;;;;;;;;;6228808;23;20385;-91
2023/07/07 14:02:57;;;;;;;10.00;7.50;;;;;;;;;;6226495;23;20389;-91
2023/07/07 14:05:24;;;;;;;9.57;7.40;;;;;;;;;;6230519;23;20439;-91
2023/07/07 14:07:50;;;;;;;9.83;7.40;;;;;;;;;;6229453;23;20409;-92
2023/07/07 14:10:19;;;;;;;7.33;6.30;;;;;;;;;;6233881;23;20548;-92
2023/07/07 14:12:45;;;;;;;8.50;7.60;;;;;;;;;;6227483;23;20382;-89
2023/07/07 14:15:12;;;;;;;9.00;7.60;;;;;;;;;;6228541;23;20955;-89
2023/07/07 14:17:38;;;;;;;8.80;6.70;;;;;;;;;;6228281;23;20147;-89
2023/07/07 14:20:26;;;;;;;7.40;5.80;;;;;;;;;;6227300;23;20378;-88
2023/07/07 14:22:52;;;;;;;7.40;6.30;;;;;;;;;;6251158;23;20370;-88
2023/07/07 14:25:18;;;;;;;8.77;7.10;;;;;;;;;;6229560;23;20401;-90
2023/07/07 14:27:44;;;;;;;8.37;6.93;;;;;;;;;;6223839;23;20862;-88
2023/07/07 14:30:17;;;;;;;8.57;6.20;;;;;;;;;;6229281;23;20437;-89
2023/07/07 14:32:43;;;;;;;9.63;6.20;;;;;;;;;;6225634;23;20443;-90
2023/07/07 14:35:15;;;;;;;9.63;7.47;;;;;;;;;;6229751;23;20428;-89
2023/07/07 14:37:44;;;;;;;7.73;6.13;;;;;;;;;;6226229;23;20402;-89
2023/07/07 14:40:28;;;;;;;8.87;6.73;;;;;;;;;;6228140;23;20381;-86
2023/07/07 14:42:54;;;;;;;9.13;6.80;;;;;;;;;;6227000;23;21067;-90
2023/07/07 14:45:30;;;;;;;10.50;6.60;;;;;;;;;;6229975;23;20390;-90
2023/07/07 14:47:57;;;;;;;8.63;6.60;;;;;;;;;;6226531;23;20405;-89
2023/07/07 14:50:23;;;;;;;8.93;6.13;;;;;;;;;;6226949;23;20374;-90